Time;durP1;ratioP1;P1;durP2;ratioP2;P2;SDS_P1;SDS_P2;PMS_P1;PMS_P2;Temp;Humidity;BMP_temperature;BMP_pressure;BME280_temperature;BME280_humidity;BME280_pressure;Samples;Min_cycle;Max_cycle;Signal;HPM_P1;HPM_P2
2021/10/17 00:00:08;;;;;;;12.43;7.27;;;9.80;99.90;;;;;;4176229;28;20511;-63
2021/10/17 00:02:09;;;;;;;11.70;6.93;;;9.80;99.90;;;;;;4175322;28;20826;-59
2021/10/17 00:04:10;;;;;;;11.03;6.30;;;9.70;99.90;;;;;;4175421;28;20036;-59
2021/10/17 00:06:11;;;;;;;10.17;6.20;;;9.70;99.90;;;;;;4176175;28;20033;-60
2021/10/17 00:08:12;;;;;;;10.20;7.00;;;9.70;99.90;;;;;;4175685;28;20099;-59
2021/10/17 00:10:34;;;;;;;13.27;7.60;;;9.80;99.90;;;;;;4176756;28;20075;-65
2021/10/17 00:12:35;;;;;;;8.73;5.60;;;9.80;99.90;;;;;;4175395;28;20075;-60
2021/10/17 00:14:38;;;;;;;12.70;7.50;;;9.70;99.90;;;;;;4174909;28;20044;-60
2021/10/17 00:16:39;;;;;;;11.47;7.10;;;9.80;99.90;;;;;;4175066;28;20033;-61
2021/10/17 00:18:40;;;;;;;11.90;7.03;;;9.80;99.90;;;;;;4176243;28;20086;-59
2021/10/17 00:20:41;;;;;;;12.33;7.87;;;9.80;99.90;;;;;;4174810;28;20049;-60
2021/10/17 00:22:43;;;;;;;13.17;7.30;;;9.70;99.90;;;;;;4176136;28;20087;-61
2021/10/17 00:24:44;;;;;;;13.83;8.50;;;9.80;99.90;;;;;;4174904;28;20041;-61
2021/10/17 00:26:45;;;;;;;16.73;8.60;;;9.70;99.90;;;;;;4176203;28;20071;-61
2021/10/17 00:28:47;;;;;;;17.30;9.13;;;9.70;99.90;;;;;;4175225;28;20032;-61
2021/10/17 00:30:48;;;;;;;17.77;9.90;;;9.60;99.90;;;;;;4176047;28;20535;-61
2021/10/17 00:32:49;;;;;;;14.97;8.63;;;9.60;99.90;;;;;;4174825;28;20071;-62
2021/10/17 00:34:50;;;;;;;17.20;9.67;;;9.50;99.90;;;;;;4175914;28;20029;-61
2021/10/17 00:36:51;;;;;;;14.37;9.30;;;9.50;99.90;;;;;;4173597;28;20099;-60
2021/10/17 00:38:53;;;;;;;14.57;8.77;;;9.50;99.90;;;;;;4175150;28;20539;-59
2021/10/17 00:40:54;;;;;;;16.83;10.10;;;9.50;99.90;;;;;;4175375;28;20071;-62
2021/10/17 00:42:58;;;;;;;17.73;10.10;;;9.40;99.90;;;;;;4175206;28;20087;-60
2021/10/17 00:45:03;;;;;;;16.50;9.67;;;9.40;99.90;;;;;;4175834;28;20029;-60
2021/10/17 00:47:05;;;;;;;18.57;10.17;;;9.40;99.90;;;;;;4174379;28;20107;-61
2021/10/17 00:49:06;;;;;;;18.00;10.37;;;9.30;99.90;;;;;;4175253;28;20090;-61
2021/10/17 00:51:07;;;;;;;15.80;9.80;;;9.30;99.90;;;;;;4174046;28;20536;-62
2021/10/17 00:53:08;;;;;;;16.13;9.77;;;9.30;99.90;;;;;;4175276;28;20033;-61
2021/10/17 00:55:15;;;;;;;19.13;9.23;;;9.30;99.90;;;;;;4174628;28;20041;-59
2021/10/17 00:57:16;;;;;;;19.57;9.70;;;9.30;99.90;;;;;;4176001;28;20087;-62
2021/10/17 00:59:17;;;;;;;16.77;10.37;;;9.30;99.90;;;;;;4174456;28;20084;-60
2021/10/17 01:01:18;;;;;;;15.87;10.33;;;9.40;99.90;;;;;;4175845;28;20041;-60
2021/10/17 01:03:20;;;;;;;17.77;10.10;;;9.40;99.90;;;;;;4174306;28;20041;-62
2021/10/17 01:05:22;;;;;;;17.87;9.43;;;9.40;99.90;;;;;;4174728;28;20041;-61
2021/10/17 01:07:23;;;;;;;16.30;9.47;;;9.40;99.90;;;;;;4174837;28;20546;-61
2021/10/17 01:09:24;;;;;;;14.80;9.30;;;9.40;99.90;;;;;;4174942;28;20040;-60
2021/10/17 01:11:40;;;;;;;14.37;9.57;;;9.40;99.90;;;;;;4174677;28;20082;-61
2021/10/17 01:13:41;;;;;;;16.00;9.37;;;9.40;99.90;;;;;;4174669;28;20531;-60
2021/10/17 01:15:43;;;;;;;18.47;9.70;;;9.40;99.90;;;;;;4174121;28;20040;-58
2021/10/17 01:17:44;;;;;;;15.70;9.27;;;9.40;99.90;;;;;;4174255;28;20816;-58
2021/10/17 01:19:46;;;;;;;16.50;10.60;;;9.30;99.90;;;;;;4174667;28;20374;-59
2021/10/17 01:21:49;;;;;;;17.83;10.17;;;9.30;99.90;;;;;;4174419;28;20126;-57
2021/10/17 01:23:51;;;;;;;20.40;11.43;;;9.30;99.90;;;;;;4174937;28;20126;-61
2021/10/17 01:25:53;;;;;;;18.67;11.63;;;9.20;99.90;;;;;;4173826;28;20083;-58
2021/10/17 01:27:54;;;;;;;16.97;10.03;;;9.20;99.90;;;;;;4175270;28;20032;-58
2021/10/17 01:29:55;;;;;;;21.33;10.90;;;9.20;99.90;;;;;;4174016;28;20461;-60
2021/10/17 01:31:56;;;;;;;19.60;11.20;;;9.10;99.90;;;;;;4174523;28;20558;-59
2021/10/17 01:33:57;;;;;;;17.30;11.17;;;9.10;99.90;;;;;;4173959;28;20028;-61
2021/10/17 01:35:58;;;;;;;18.70;11.60;;;9.10;99.90;;;;;;4174745;28;20044;-57
2021/10/17 01:37:59;;;;;;;17.17;11.33;;;9.10;99.90;;;;;;4174529;28;20037;-59
2021/10/17 01:40:01;;;;;;;19.50;11.73;;;9.10;99.90;;;;;;4175374;28;20118;-60
2021/10/17 01:42:02;;;;;;;17.07;10.13;;;9.10;99.90;;;;;;4173271;28;20029;-61
2021/10/17 01:44:13;;;;;;;19.57;11.07;;;9.10;99.90;;;;;;4174936;28;20129;-60
2021/10/17 01:46:14;;;;;;;;;;;9.10;99.90;;;;;;4174178;28;20091;-57
2021/10/17 01:48:15;;;;;;;15.00;9.47;;;9.10;99.90;;;;;;4173961;28;19958;-60
2021/10/17 01:50:16;;;;;;;16.97;10.07;;;9.10;99.90;;;;;;4173492;28;20098;-60
2021/10/17 01:52:18;;;;;;;14.60;9.57;;;9.20;99.90;;;;;;4173590;28;20123;-59
2021/10/17 01:54:19;;;;;;;17.03;9.87;;;9.20;99.90;;;;;;4174428;28;20029;-61
2021/10/17 01:56:20;;;;;;;16.37;9.80;;;9.20;99.90;;;;;;4173644;28;20098;-62
2021/10/17 01:58:21;;;;;;;18.30;10.03;;;9.30;99.90;;;;;;4174446;28;20079;-60
2021/10/17 02:00:22;;;;;;;18.10;10.40;;;9.30;99.90;;;;;;4173471;28;20071;-62
2021/10/17 02:02:23;;;;;;;19.03;10.00;;;9.20;99.90;;;;;;4174697;28;20497;-55
2021/10/17 02:04:25;;;;;;;16.80;9.97;;;9.20;99.90;;;;;;4172954;28;20083;-60
2021/10/17 02:06:26;;;;;;;20.47;11.83;;;9.30;99.90;;;;;;4174365;28;20041;-60
2021/10/17 02:08:28;;;;;;;20.60;12.30;;;9.20;99.90;;;;;;4173888;28;20021;-60
2021/10/17 02:10:29;;;;;;;21.70;12.47;;;9.20;99.90;;;;;;4174992;28;20033;-61
2021/10/17 02:12:30;;;;;;;22.43;13.00;;;9.10;99.90;;;;;;4173739;28;20033;-61
2021/10/17 02:14:31;;;;;;;24.17;12.10;;;9.10;99.90;;;;;;4173983;28;20444;-58
2021/10/17 02:16:32;;;;;;;19.10;11.53;;;9.10;99.90;;;;;;4173005;28;20459;-61
2021/10/17 02:18:33;;;;;;;19.63;11.97;;;9.10;99.90;;;;;;4173759;28;20056;-61
2021/10/17 02:20:36;;;;;;;25.17;12.30;;;9.20;99.90;;;;;;4173734;28;20114;-60
2021/10/17 02:22:37;;;;;;;22.23;11.30;;;9.20;99.90;;;;;;4173309;28;20561;-60
2021/10/17 02:24:38;;;;;;;17.20;11.20;;;9.20;99.90;;;;;;4173791;28;20041;-59
2021/10/17 02:26:39;;;;;;;17.30;10.60;;;9.20;99.90;;;;;;4172941;28;20052;-61
2021/10/17 02:28:40;;;;;;;24.93;11.90;;;9.20;99.90;;;;;;4173821;28;20036;-61
2021/10/17 02:30:42;;;;;;;20.50;12.07;;;9.20;99.90;;;;;;4172985;28;20033;-60
2021/10/17 02:32:43;;;;;;;22.43;12.93;;;9.30;99.90;;;;;;4173748;28;20079;-61
2021/10/17 02:34:44;;;;;;;21.40;12.53;;;9.30;99.90;;;;;;4172773;28;20090;-60
2021/10/17 02:36:45;;;;;;;20.20;12.27;;;9.20;99.90;;;;;;4174225;28;20083;-60
2021/10/17 02:38:46;;;;;;;23.00;13.13;;;9.20;99.90;;;;;;4173021;28;20102;-61
2021/10/17 02:40:47;;;;;;;21.13;13.23;;;9.20;99.90;;;;;;4173619;28;20041;-59
2021/10/17 02:42:48;;;;;;;28.17;13.53;;;9.10;99.90;;;;;;4172731;28;20032;-60
2021/10/17 02:44:49;;;;;;;24.33;14.43;;;9.00;99.90;;;;;;4174132;28;20075;-60
2021/10/17 02:46:50;;;;;;;24.67;14.20;;;9.00;99.90;;;;;;4172774;28;20036;-59
2021/10/17 02:48:52;;;;;;;20.70;13.67;;;8.90;99.90;;;;;;4173417;28;20472;-61
2021/10/17 02:50:53;;;;;;;21.50;12.67;;;8.90;99.90;;;;;;4173259;28;20044;-60
2021/10/17 02:52:54;;;;;;;33.47;14.07;;;8.90;99.90;;;;;;4173134;28;20049;-56
2021/10/17 02:54:55;;;;;;;23.87;14.27;;;8.90;99.90;;;;;;4173918;28;20029;-62
2021/10/17 02:56:56;;;;;;;20.30;12.07;;;8.90;99.90;;;;;;4172706;28;20033;-62
2021/10/17 02:58:57;;;;;;;24.77;12.67;;;8.90;99.90;;;;;;4174044;28;20044;-60
2021/10/17 03:00:58;;;;;;;26.53;13.70;;;8.90;99.90;;;;;;4176473;28;20037;-62
2021/10/17 03:02:59;;;;;;;24.57;11.63;;;8.90;99.90;;;;;;4179744;28;20029;-61
2021/10/17 03:05:02;;;;;;;20.27;12.03;;;9.00;99.90;;;;;;4178205;28;20028;-55
2021/10/17 03:07:03;;;;;;;18.80;10.70;;;9.00;99.90;;;;;;4179521;28;20025;-59
2021/10/17 03:09:04;;;;;;;22.67;11.67;;;9.00;99.90;;;;;;4176876;28;20037;-59
2021/10/17 03:11:05;;;;;;;23.33;12.13;;;9.00;99.90;;;;;;4179643;28;20100;-62
2021/10/17 03:13:06;;;;;;;22.57;12.87;;;9.00;99.90;;;;;;4178470;28;20558;-62
2021/10/17 03:15:08;;;;;;;16.70;10.87;;;9.00;99.90;;;;;;4179132;28;20103;-63
2021/10/17 03:17:09;;;;;;;23.70;12.80;;;9.00;99.90;;;;;;4176774;28;20033;-60
2021/10/17 03:19:10;;;;;;;21.53;12.33;;;9.10;99.90;;;;;;4179162;28;20559;-62
2021/10/17 03:21:11;;;;;;;24.00;14.10;;;9.10;99.90;;;;;;4178098;28;20056;-62
2021/10/17 03:23:12;;;;;;;25.33;14.10;;;9.10;99.90;;;;;;4178845;28;20041;-61
2021/10/17 03:25:13;;;;;;;23.60;13.57;;;9.10;99.90;;;;;;4179132;28;20041;-61
2021/10/17 03:27:14;;;;;;;25.87;13.97;;;9.00;99.90;;;;;;4178013;28;20040;-62
2021/10/17 03:29:15;;;;;;;24.07;13.17;;;9.00;99.90;;;;;;4178881;28;20044;-61
2021/10/17 03:31:17;;;;;;;24.47;13.10;;;9.00;99.90;;;;;;4177733;28;20074;-62
2021/10/17 03:33:18;;;;;;;24.63;13.20;;;9.10;99.90;;;;;;4179245;28;20106;-60
2021/10/17 03:35:19;;;;;;;24.53;13.87;;;9.00;99.90;;;;;;4177565;28;20086;-62
2021/10/17 03:37:20;;;;;;;26.47;13.87;;;9.10;99.90;;;;;;4177206;28;20052;-59
2021/10/17 03:39:21;;;;;;;21.40;12.57;;;9.10;99.90;;;;;;4178365;28;20041;-62
2021/10/17 03:41:22;;;;;;;19.67;12.70;;;9.00;99.90;;;;;;4179184;28;20075;-62
2021/10/17 03:43:23;;;;;;;23.27;13.33;;;9.00;99.90;;;;;;4177984;28;20044;-61
2021/10/17 03:45:24;;;;;;;22.10;12.37;;;9.00;99.90;;;;;;4179434;28;20025;-61
2021/10/17 03:47:26;;;;;;;23.17;12.10;;;9.00;99.90;;;;;;4178041;28;20025;-60
2021/10/17 03:49:27;;;;;;;20.50;11.77;;;8.90;99.90;;;;;;4178323;28;20041;-61
2021/10/17 03:51:28;;;;;;;20.20;12.00;;;9.00;99.90;;;;;;4178296;28;20521;-60
2021/10/17 03:53:29;;;;;;;22.87;12.37;;;8.90;99.90;;;;;;4179204;28;20025;-62
2021/10/17 03:55:30;;;;;;;21.97;12.50;;;9.00;99.90;;;;;;4178487;28;20559;-61
2021/10/17 03:57:31;;;;;;;20.00;11.33;;;8.90;99.90;;;;;;4178084;28;20059;-61
2021/10/17 03:59:32;;;;;;;20.20;12.63;;;8.90;99.90;;;;;;4178896;28;20052;-60
2021/10/17 04:01:33;;;;;;;21.37;11.27;;;8.90;99.90;;;;;;4177076;28;20044;-61
2021/10/17 04:03:34;;;;;;;17.77;11.53;;;8.90;99.90;;;;;;4178457;28;20481;-59
2021/10/17 04:05:36;;;;;;;17.27;10.73;;;8.90;99.90;;;;;;4177549;28;20469;-60
2021/10/17 04:07:37;;;;;;;17.90;10.27;;;8.90;99.90;;;;;;4179008;28;20037;-61
2021/10/17 04:09:38;;;;;;;16.67;10.00;;;8.80;99.90;;;;;;4177689;28;20087;-59
2021/10/17 04:11:40;;;;;;;16.77;10.03;;;8.90;99.90;;;;;;4177019;28;20045;-61
2021/10/17 04:13:41;;;;;;;19.20;10.73;;;8.80;99.90;;;;;;4174971;28;20045;-62
2021/10/17 04:15:42;;;;;;;15.77;10.37;;;8.90;99.90;;;;;;4176417;28;20106;-56
2021/10/17 04:17:43;;;;;;;21.57;11.70;;;8.80;99.90;;;;;;4175345;28;20033;-62
2021/10/17 04:19:44;;;;;;;16.73;10.83;;;8.80;99.90;;;;;;4175551;28;20041;-61
2021/10/17 04:21:45;;;;;;;22.93;12.40;;;8.80;99.90;;;;;;4175190;28;20582;-60
2021/10/17 04:23:47;;;;;;;19.40;12.20;;;8.70;99.90;;;;;;4175362;28;20029;-61
2021/10/17 04:25:48;;;;;;;24.87;12.23;;;8.70;99.90;;;;;;4175528;28;20091;-61
2021/10/17 04:27:49;;;;;;;24.03;12.00;;;8.70;99.90;;;;;;4174715;28;20087;-61
2021/10/17 04:29:50;;;;;;;20.30;10.53;;;8.70;99.90;;;;;;4176206;28;20067;-62
2021/10/17 04:31:51;;;;;;;20.23;11.10;;;8.70;99.90;;;;;;4174894;28;20033;-62
2021/10/17 04:33:52;;;;;;;15.57;9.93;;;8.70;99.90;;;;;;4176171;28;20028;-58
2021/10/17 04:35:53;;;;;;;20.93;11.03;;;8.70;99.90;;;;;;4173016;28;20103;-60
2021/10/17 04:37:55;;;;;;;22.10;10.70;;;8.70;99.90;;;;;;4175848;28;20078;-59
2021/10/17 04:39:56;;;;;;;19.67;10.60;;;8.80;99.90;;;;;;4174432;28;20432;-61
2021/10/17 04:41:59;;;;;;;20.53;9.80;;;8.80;99.90;;;;;;4175470;28;20040;-59
2021/10/17 04:44:02;;;;;;;16.17;10.13;;;8.80;99.90;;;;;;4173867;28;20048;-61
2021/10/17 04:46:03;;;;;;;15.60;9.80;;;8.80;99.90;;;;;;4176048;28;20090;-58
2021/10/17 04:48:05;;;;;;;21.70;11.47;;;8.80;99.90;;;;;;4174748;28;20811;-60
2021/10/17 04:50:07;;;;;;;16.77;8.90;;;8.80;99.90;;;;;;4175516;28;20032;-61
2021/10/17 04:52:08;;;;;;;18.80;9.30;;;8.80;99.90;;;;;;4174758;28;20020;-61
2021/10/17 04:54:09;;;;;;;15.60;9.23;;;8.90;99.90;;;;;;4175175;28;20098;-59
2021/10/17 04:56:10;;;;;;;16.77;10.10;;;8.90;99.90;;;;;;4175472;28;20443;-60
2021/10/17 04:58:11;;;;;;;16.37;10.07;;;8.90;99.90;;;;;;4174116;28;20032;-61
2021/10/17 05:00:13;;;;;;;12.97;8.73;;;8.90;99.90;;;;;;4175621;28;20091;-60
2021/10/17 05:02:14;;;;;;;18.60;10.07;;;8.90;99.90;;;;;;4174243;28;20473;-59
2021/10/17 05:04:18;;;;;;;14.13;8.07;;;8.90;99.90;;;;;;4175545;28;20831;-61
2021/10/17 05:06:19;;;;;;;17.10;9.27;;;9.00;99.90;;;;;;4173758;28;20033;-60
2021/10/17 05:08:21;;;;;;;19.17;9.47;;;8.90;99.90;;;;;;4175839;28;20102;-59
2021/10/17 05:10:22;;;;;;;16.70;9.10;;;8.80;99.90;;;;;;4173954;28;20083;-62
2021/10/17 05:12:23;;;;;;;16.67;10.63;;;8.70;99.90;;;;;;4173721;28;20048;-62
2021/10/17 05:14:24;;;;;;;20.27;10.30;;;8.70;99.90;;;;;;4173341;28;20049;-60
2021/10/17 05:16:25;;;;;;;20.47;11.33;;;8.70;99.90;;;;;;4175424;28;20413;-57
2021/10/17 05:18:26;;;;;;;17.03;10.57;;;8.70;99.90;;;;;;4173958;28;20036;-61
2021/10/17 05:20:27;;;;;;;21.60;11.37;;;8.70;99.90;;;;;;4174492;28;20570;-58
2021/10/17 05:22:28;;;;;;;20.93;10.70;;;8.70;99.90;;;;;;4173980;28;20089;-59
2021/10/17 05:24:30;;;;;;;22.00;11.87;;;8.70;99.90;;;;;;4174440;28;20473;-62
2021/10/17 05:26:31;;;;;;;24.30;12.30;;;8.70;99.90;;;;;;4174677;28;20036;-60
2021/10/17 05:28:32;;;;;;;19.43;11.77;;;8.70;99.90;;;;;;4174374;28;20021;-61
2021/10/17 05:30:33;;;;;;;21.20;12.03;;;8.60;99.90;;;;;;4174805;28;20469;-60
2021/10/17 05:32:34;;;;;;;26.40;13.03;;;8.70;99.90;;;;;;4173735;28;20090;-60
2021/10/17 05:34:36;;;;;;;22.07;11.87;;;8.70;99.90;;;;;;4175072;28;20045;-59
2021/10/17 05:36:37;;;;;;;19.53;12.67;;;8.70;99.90;;;;;;4173659;28;20540;-60
2021/10/17 05:38:40;;;;;;;24.10;13.93;;;8.80;99.90;;;;;;4175302;28;20033;-61
2021/10/17 05:40:41;;;;;;;22.63;12.43;;;8.80;99.90;;;;;;4173878;28;20078;-62
2021/10/17 05:42:42;;;;;;;20.47;11.93;;;8.80;99.90;;;;;;4175120;28;20362;-60
2021/10/17 05:44:43;;;;;;;21.00;12.07;;;8.90;99.90;;;;;;4173559;28;20033;-60
2021/10/17 05:46:44;;;;;;;19.70;11.90;;;8.90;99.90;;;;;;4174593;28;20029;-60
2021/10/17 05:48:46;;;;;;;19.70;12.10;;;8.90;99.90;;;;;;4173181;28;20033;-60
2021/10/17 05:50:47;;;;;;;20.57;12.30;;;9.00;99.90;;;;;;4174601;28;20036;-60
2021/10/17 05:52:48;;;;;;;16.77;11.27;;;9.00;99.90;;;;;;4173895;28;20029;-60
2021/10/17 05:54:49;;;;;;;20.80;13.27;;;9.10;99.90;;;;;;4173889;28;20094;-58
2021/10/17 05:56:50;;;;;;;18.53;11.13;;;9.10;99.90;;;;;;4173413;28;20037;-59
2021/10/17 05:58:51;;;;;;;18.47;10.73;;;9.10;99.90;;;;;;4173570;28;20448;-61
2021/10/17 06:00:52;;;;;;;17.37;10.67;;;9.20;99.90;;;;;;4172572;28;20032;-60
2021/10/17 06:02:53;;;;;;;15.77;10.07;;;9.20;99.90;;;;;;4173109;28;20036;-61
2021/10/17 06:04:54;;;;;;;16.30;9.00;;;9.20;99.90;;;;;;4173767;28;21166;-61
2021/10/17 06:06:55;;;;;;;17.67;10.33;;;9.20;99.90;;;;;;4172466;28;20090;-60
2021/10/17 06:08:59;;;;;;;19.97;10.67;;;9.20;99.90;;;;;;4174545;28;20033;-60
2021/10/17 06:11:00;;;;;;;17.63;10.53;;;9.20;99.90;;;;;;4172899;28;20014;-60
2021/10/17 06:13:01;;;;;;;17.97;10.60;;;9.20;99.90;;;;;;4174090;28;20024;-61
2021/10/17 06:15:04;;;;;;;18.67;9.90;;;9.20;99.90;;;;;;4172882;28;20024;-61
2021/10/17 06:17:05;;;;;;;20.30;10.93;;;9.30;99.90;;;;;;4173312;28;20095;-60
2021/10/17 06:19:06;;;;;;;30.03;12.03;;;9.40;99.90;;;;;;4170533;28;20033;-61
2021/10/17 06:21:08;;;;;;;16.47;9.40;;;9.50;99.90;;;;;;4173554;28;20106;-60
2021/10/17 06:23:09;;;;;;;19.20;10.00;;;9.90;99.90;;;;;;4172946;28;20021;-61
2021/10/17 06:25:10;;;;;;;17.60;10.30;;;10.30;99.90;;;;;;4173471;28;20079;-61
2021/10/17 06:27:12;;;;;;;17.60;9.63;;;10.80;99.90;;;;;;4173472;28;20067;-61
2021/10/17 06:29:13;;;;;;;16.60;9.30;;;11.30;99.90;;;;;;4172718;28;20029;-62
2021/10/17 06:31:14;;;;;;;16.43;9.27;;;11.90;99.90;;;;;;4173699;28;20111;-61
2021/10/17 06:33:15;;;;;;;16.00;9.50;;;12.50;99.90;;;;;;4172639;28;20090;-61
2021/10/17 06:35:16;;;;;;;15.57;9.03;;;13.10;99.90;;;;;;4173252;28;21227;-56
2021/10/17 06:37:18;;;;;;;15.57;8.97;;;13.60;99.90;;;;;;4172692;28;20044;-62
2021/10/17 06:39:19;;;;;;;14.83;8.50;;;14.00;99.90;;;;;;4174314;28;20045;-62
2021/10/17 06:41:20;;;;;;;13.77;8.53;;;14.40;99.90;;;;;;4172270;28;20056;-60
2021/10/17 06:43:21;;;;;;;20.90;8.63;;;14.50;99.90;;;;;;4173842;28;20033;-61
2021/10/17 06:45:22;;;;;;;13.33;8.43;;;14.80;99.90;;;;;;4172587;28;20073;-61
2021/10/17 06:47:23;;;;;;;16.03;8.50;;;15.10;99.90;;;;;;4173844;28;20045;-61
2021/10/17 06:49:24;;;;;;;12.83;8.37;;;15.40;99.90;;;;;;4171917;28;20040;-63
2021/10/17 06:51:26;;;;;;;11.83;7.80;;;15.60;99.90;;;;;;4173907;28;20424;-62
2021/10/17 06:53:27;;;;;;;12.47;7.60;;;15.80;99.90;;;;;;4172387;28;20095;-61
2021/10/17 06:55:28;;;;;;;11.17;7.30;;;15.80;99.90;;;;;;4173821;28;20025;-61
2021/10/17 06:57:29;;;;;;;12.33;8.00;;;15.90;99.90;;;;;;4172777;28;20465;-60
2021/10/17 06:59:30;;;;;;;16.67;7.70;;;15.80;99.90;;;;;;4171180;28;20114;-59
2021/10/17 07:01:32;;;;;;;23.63;10.30;;;15.50;99.90;;;;;;4172731;28;20448;-61
2021/10/17 07:03:34;;;;;;;20.63;9.57;;;15.40;99.90;;;;;;4172095;28;20099;-61
2021/10/17 07:05:35;;;;;;;23.40;9.43;;;15.10;99.90;;;;;;4173228;28;20049;-56
2021/10/17 07:07:36;;;;;;;22.83;10.60;;;15.00;99.90;;;;;;4170415;28;20461;-61
2021/10/17 07:09:37;;;;;;;21.65;9.80;;;15.10;99.90;;;;;;4174204;28;20033;-61
2021/10/17 07:11:38;;;;;;;16.60;8.32;;;15.50;99.90;;;;;;4172405;28;20055;-60
2021/10/17 07:13:39;;;;;;;20.75;8.75;;;15.80;99.90;;;;;;4173152;28;20420;-61
2021/10/17 07:15:40;;;;;;;14.60;8.40;;;15.60;99.90;;;;;;4171941;28;20064;-62
2021/10/17 07:17:41;;;;;;;16.92;8.75;;;15.20;99.90;;;;;;4173476;28;20540;-62
2021/10/17 07:19:42;;;;;;;15.10;8.00;;;14.90;99.90;;;;;;4172016;28;20150;-61
2021/10/17 07:21:44;;;;;;;15.20;9.45;;;14.80;99.90;;;;;;4173550;28;20049;-61
2021/10/17 07:23:45;;;;;;;11.90;7.93;;;14.90;99.90;;;;;;4171075;28;20095;-61
2021/10/17 07:25:46;;;;;;;26.05;9.05;;;14.60;99.90;;;;;;4173258;28;20047;-59
2021/10/17 07:27:47;;;;;;;20.05;9.90;;;14.30;99.90;;;;;;4172865;28;20540;-60
2021/10/17 07:29:48;;;;;;;23.67;9.93;;;14.20;99.90;;;;;;4170808;28;20040;-61
2021/10/17 07:31:49;;;;;;;13.00;7.37;;;14.20;99.90;;;;;;4172897;28;20025;-61
2021/10/17 07:33:50;;;;;;;14.93;7.93;;;14.20;99.90;;;;;;4171877;28;20694;-60
2021/10/17 07:35:52;;;;;;;17.37;9.07;;;14.00;99.90;;;;;;4173004;28;20029;-61
2021/10/17 07:37:53;;;;;;;20.23;8.67;;;14.10;99.90;;;;;;4170732;28;20036;-59
2021/10/17 07:39:54;;;;;;;14.90;8.43;;;13.80;99.90;;;;;;4173788;28;20048;-60
2021/10/17 07:41:55;;;;;;;14.57;9.10;;;13.60;99.90;;;;;;4171956;28;20087;-62
2021/10/17 07:43:56;;;;;;;15.73;9.03;;;13.70;99.90;;;;;;4173184;28;20053;-62
2021/10/17 07:46:01;;;;;;;19.70;8.67;;;13.80;99.90;;;;;;4171440;28;20107;-60
2021/10/17 07:48:03;;;;;;;14.73;8.23;;;13.90;99.90;;;;;;4174760;28;20028;-60
2021/10/17 07:50:06;;;;;;;14.37;8.60;;;14.00;99.90;;;;;;4174823;28;20751;-61
2021/10/17 07:52:07;;;;;;;11.27;7.53;;;14.20;99.90;;;;;;4175651;28;20098;-62
2021/10/17 07:54:08;;;;;;;14.03;8.27;;;14.20;99.90;;;;;;4175076;28;20045;-60
2021/10/17 07:56:09;;;;;;;17.67;8.53;;;14.10;99.90;;;;;;4176162;28;20033;-60
2021/10/17 07:58:10;;;;;;;11.43;7.90;;;13.90;99.90;;;;;;4175240;28;20033;-61
2021/10/17 08:00:12;;;;;;;10.60;7.13;;;14.10;99.90;;;;;;4175396;28;20122;-61
2021/10/17 08:02:13;;;;;;;11.90;7.43;;;14.40;99.90;;;;;;4175455;28;20024;-62
2021/10/17 08:04:14;;;;;;;11.87;6.27;;;14.40;99.90;;;;;;4175221;28;20436;-61
2021/10/17 08:06:15;;;;;;;8.10;5.97;;;14.00;99.90;;;;;;4175667;28;20045;-61
2021/10/17 08:08:16;;;;;;;8.70;5.63;;;13.50;99.90;;;;;;4175244;28;20090;-59
2021/10/17 08:10:17;;;;;;;7.80;5.73;;;13.60;99.90;;;;;;4176235;28;20098;-61
2021/10/17 08:12:19;;;;;;;7.90;6.20;;;13.50;99.90;;;;;;4174704;28;20033;-61
2021/10/17 08:14:20;;;;;;;8.37;5.60;;;13.60;99.90;;;;;;4176054;28;20017;-61
2021/10/17 08:16:21;;;;;;;7.47;5.27;;;13.90;99.90;;;;;;4174681;28;20028;-58
2021/10/17 08:18:24;;;;;;;7.53;5.30;;;13.90;99.90;;;;;;4175361;28;20041;-60
2021/10/17 08:20:25;;;;;;;8.47;5.63;;;14.20;99.90;;;;;;4174317;28;20099;-58
2021/10/17 08:22:26;;;;;;;7.93;5.27;;;14.10;99.90;;;;;;4175651;28;20102;-60
2021/10/17 08:24:29;;;;;;;7.73;5.57;;;13.90;99.90;;;;;;4174614;28;20089;-61
2021/10/17 08:26:30;;;;;;;6.80;5.17;;;14.00;99.90;;;;;;4175378;28;20078;-57
2021/10/17 08:28:31;;;;;;;8.07;5.27;;;13.80;99.90;;;;;;4174746;28;20866;-63
2021/10/17 08:30:32;;;;;;;7.23;5.03;;;13.70;99.90;;;;;;4175374;28;20033;-58
2021/10/17 08:32:33;;;;;;;7.67;5.40;;;13.80;99.90;;;;;;4175086;28;20033;-61
2021/10/17 08:34:35;;;;;;;9.73;5.33;;;14.00;99.90;;;;;;4174411;28;20095;-61
2021/10/17 08:36:36;;;;;;;10.97;6.53;;;14.00;99.90;;;;;;4175397;28;20473;-61
2021/10/17 08:38:37;;;;;;;8.60;5.47;;;13.70;99.90;;;;;;4174404;28;20033;-62
2021/10/17 08:40:40;;;;;;;7.93;5.10;;;13.50;99.90;;;;;;4175608;28;20107;-63
2021/10/17 08:42:41;;;;;;;6.13;4.57;;;13.30;99.90;;;;;;4174275;28;20037;-60
2021/10/17 08:44:43;;;;;;;7.80;4.93;;;13.10;99.90;;;;;;4175828;28;20028;-61
2021/10/17 08:46:44;;;;;;;9.10;4.87;;;12.80;99.90;;;;;;4174084;28;20033;-59
2021/10/17 08:48:53;;;;;;;8.57;5.30;;;12.60;99.90;;;;;;4175236;28;20049;-61
2021/10/17 08:50:55;;;;;;;6.63;4.70;;;12.40;99.90;;;;;;4173173;28;20033;-63
2021/10/17 08:52:57;;;;;;;8.77;5.90;;;12.30;99.90;;;;;;4175041;28;20142;-61
2021/10/17 08:54:58;;;;;;;8.40;5.63;;;12.30;99.90;;;;;;4172486;28;20041;-61
2021/10/17 08:57:00;;;;;;;7.73;4.93;;;12.50;99.90;;;;;;4175318;28;20488;-61
2021/10/17 08:59:01;;;;;;;9.20;5.30;;;12.60;99.90;;;;;;4173348;28;20110;-59
2021/10/17 09:01:14;;;;;;;9.03;5.67;;;13.00;99.90;;;;;;4173616;28;20123;-61
2021/10/17 09:03:31;;;;;;;11.53;5.43;;;13.30;99.90;;;;;;4173909;28;20013;-61
2021/10/17 09:05:39;;;;;;;9.43;5.53;;;13.50;99.90;;;;;;4175189;28;20048;-62
2021/10/17 09:07:40;;;;;;;15.43;6.23;;;13.90;99.90;;;;;;4173927;28;20033;-63
2021/10/17 09:09:41;;;;;;;7.77;4.83;;;14.00;99.90;;;;;;4174831;28;20123;-59
2021/10/17 09:11:42;;;;;;;10.53;5.40;;;14.10;99.90;;;;;;4173153;28;20040;-62
2021/10/17 09:14:03;;;;;;;9.03;5.57;;;14.00;99.90;;;;;;4172907;28;20040;-61
2021/10/17 09:16:23;;;;;;;7.93;5.50;;;13.80;99.90;;;;;;4173989;28;20091;-61
2021/10/17 09:18:25;;;;;;;6.93;4.68;;;13.90;99.90;;;;;;4175124;28;20033;-59
2021/10/17 09:20:26;;;;;;;7.60;4.83;;;14.00;99.90;;;;;;4172778;28;20118;-60
2021/10/17 09:22:31;;;;;;;8.70;5.70;;;14.10;99.90;;;;;;4174280;28;20424;-62
2021/10/17 09:24:40;;;;;;;7.17;5.13;;;14.00;99.90;;;;;;4173698;28;20033;-60
2021/10/17 09:27:15;;;;;;;9.67;4.73;;;14.00;99.90;;;;;;4174191;28;20033;-63
2021/10/17 09:29:29;;;;;;;6.53;4.60;;;14.00;99.90;;;;;;4173274;28;20262;-60
2021/10/17 09:31:30;;;;;;;9.10;4.63;;;13.90;99.90;;;;;;4174617;28;20099;-61
2021/10/17 09:33:32;;;;;;;8.03;5.13;;;13.90;99.90;;;;;;4173211;28;20033;-60
2021/10/17 09:35:34;;;;;;;7.47;4.63;;;14.00;99.90;;;;;;4173889;28;20717;-59
2021/10/17 09:37:39;;;;;;;6.50;4.43;;;14.00;99.90;;;;;;4173178;28;20033;-62
2021/10/17 09:39:52;;;;;;;5.83;4.53;;;14.20;99.90;;;;;;4174112;28;20066;-61
2021/10/17 09:41:53;;;;;;;6.60;4.43;;;14.40;99.90;;;;;;4173194;28;20481;-61
2021/10/17 09:43:57;;;;;;;6.67;4.67;;;14.20;99.90;;;;;;4173508;28;20037;-61
2021/10/17 09:46:09;;;;;;;5.27;4.47;;;14.30;99.90;;;;;;4172126;28;20479;-60
2021/10/17 09:48:10;;;;;;;8.40;3.87;;;14.10;99.90;;;;;;4173400;28;20968;-61
2021/10/17 09:50:15;;;;;;;6.43;4.13;;;14.10;99.90;;;;;;4173656;28;20838;-61
2021/10/17 09:52:19;;;;;;;6.93;4.13;;;14.20;99.90;;;;;;4173040;28;20431;-62
2021/10/17 09:54:21;;;;;;;7.47;4.20;;;14.20;99.90;;;;;;4174298;28;20037;-60
2021/10/17 09:56:33;;;;;;;8.90;4.53;;;14.10;99.90;;;;;;4173170;28;20428;-63
2021/10/17 09:58:35;;;;;;;7.10;4.27;;;14.00;99.90;;;;;;4174081;28;20103;-58
2021/10/17 10:00:38;;;;;;;5.93;4.67;;;13.80;99.90;;;;;;4172364;28;20378;-61
2021/10/17 10:02:48;;;;;;;8.33;4.97;;;13.60;99.90;;;;;;4174218;28;20037;-60
2021/10/17 10:04:51;;;;;;;6.47;4.20;;;13.60;99.90;;;;;;4172253;28;20248;-61
2021/10/17 10:06:54;;;;;;;7.33;4.73;;;13.60;99.90;;;;;;4173860;28;20033;-60
2021/10/17 10:09:04;;;;;;;6.97;4.60;;;13.70;99.90;;;;;;4172849;28;20106;-60
2021/10/17 10:11:06;;;;;;;8.88;4.78;;;13.70;99.90;;;;;;4172990;28;20366;-61
2021/10/17 10:13:09;;;;;;;6.63;4.57;;;13.70;99.90;;;;;;4172873;28;20028;-60
2021/10/17 10:15:10;;;;;;;6.93;4.50;;;13.80;99.90;;;;;;4173956;28;20573;-58
2021/10/17 10:17:17;;;;;;;7.37;4.40;;;13.70;99.90;;;;;;4172265;28;20094;-62
2021/10/17 10:19:19;;;;;;;7.23;4.20;;;13.60;99.90;;;;;;4174275;28;20025;-61
2021/10/17 10:21:21;;;;;;;8.97;4.60;;;13.50;99.90;;;;;;4172542;28;20098;-61
2021/10/17 10:23:23;;;;;;;6.67;4.80;;;13.50;99.90;;;;;;4172589;28;20632;-60
2021/10/17 10:25:24;;;;;;;11.70;4.47;;;13.50;99.90;;;;;;4172740;28;20045;-61
2021/10/17 10:27:27;;;;;;;6.07;3.60;;;13.30;99.90;;;;;;4173579;28;20029;-60
2021/10/17 10:29:31;;;;;;;6.40;4.47;;;13.30;99.90;;;;;;4172670;28;20107;-60